Terminal Aerodrome Forecast
Issued by NWS Knoxville/Tri Cities, TN

Home | Current Version | Previous Version | Text Only | Print | Product List | Glossary On
Versions: 1 2 3 4 5 6 7 8 9 10 11 12 13 14 15 16 17 18 19 20 21 22
000
FTUS44 KMRX 241941 AAC
TAFTRI
TAF AMD
KTRI 241941Z 2420/2518 18014KT P6SM VCTS BKN040CB
     FM250000 26006KT P6SM VCSH OVC015
     FM250700 26005KT 5SM BR OVC005
     FM251300 25006KT 5SM BR OVC015=

USA.gov is the U.S. government's official web portal to all federal, state and local government web resources and services.